sensor_id;sensor_type;location;lat;lon;timestamp;temperature;humidity
72320;SHT30;60269;52.502;16.732;2023-12-29T00:02:54;4.64;93.56
72320;SHT30;60269;52.502;16.732;2023-12-29T00:06:26;4.47;93.96
72320;SHT30;60269;52.502;16.732;2023-12-29T00:09:58;4.46;94.27
72320;SHT30;60269;52.502;16.732;2023-12-29T00:13:31;4.36;94.61
72320;SHT30;60269;52.502;16.732;2023-12-29T00:17:03;4.24;94.87
72320;SHT30;60269;52.502;16.732;2023-12-29T00:20:35;4.33;94.88
72320;SHT30;60269;52.502;16.732;2023-12-29T00:24:12;4.23;95.02
72320;SHT30;60269;52.502;16.732;2023-12-29T00:27:45;4.40;94.69
72320;SHT30;60269;52.502;16.732;2023-12-29T00:31:17;4.21;95.05
72320;SHT30;60269;52.502;16.732;2023-12-29T00:34:49;4.30;95.03
72320;SHT30;60269;52.502;16.732;2023-12-29T00:38:21;4.27;95.12
72320;SHT30;60269;52.502;16.732;2023-12-29T00:41:54;4.30;95.13
72320;SHT30;60269;52.502;16.732;2023-12-29T00:45:27;4.29;95.22
72320;SHT30;60269;52.502;16.732;2023-12-29T00:49:04;4.39;95.24
72320;SHT30;60269;52.502;16.732;2023-12-29T00:52:36;4.40;94.80
72320;SHT30;60269;52.502;16.732;2023-12-29T00:56:11;4.47;94.59
72320;SHT30;60269;52.502;16.732;2023-12-29T00:59:46;4.48;94.65
72320;SHT30;60269;52.502;16.732;2023-12-29T01:03:18;4.56;94.52
72320;SHT30;60269;52.502;16.732;2023-12-29T01:06:55;4.60;94.39
72320;SHT30;60269;52.502;16.732;2023-12-29T01:10:27;4.78;94.01
72320;SHT30;60269;52.502;16.732;2023-12-29T01:13:59;4.78;93.98
72320;SHT30;60269;52.502;16.732;2023-12-29T01:17:31;4.78;93.82
72320;SHT30;60269;52.502;16.732;2023-12-29T01:21:03;4.93;93.26
72320;SHT30;60269;52.502;16.732;2023-12-29T01:24:35;4.99;93.24
72320;SHT30;60269;52.502;16.732;2023-12-29T01:28:17;5.04;93.06
72320;SHT30;60269;52.502;16.732;2023-12-29T01:31:49;5.08;92.88
72320;SHT30;60269;52.502;16.732;2023-12-29T01:35:21;5.06;92.94
72320;SHT30;60269;52.502;16.732;2023-12-29T01:38:53;5.25;92.29
72320;SHT30;60269;52.502;16.732;2023-12-29T01:42:25;5.32;91.83
72320;SHT30;60269;52.502;16.732;2023-12-29T01:45:57;5.33;91.76
72320;SHT30;60269;52.502;16.732;2023-12-29T01:49:33;5.30;91.63
72320;SHT30;60269;52.502;16.732;2023-12-29T01:53:05;5.39;91.44
72320;SHT30;60269;52.502;16.732;2023-12-29T01:56:38;5.40;91.24
72320;SHT30;60269;52.502;16.732;2023-12-29T02:00:11;5.56;90.57
72320;SHT30;60269;52.502;16.732;2023-12-29T02:03:44;5.60;90.54
72320;SHT30;60269;52.502;16.732;2023-12-29T02:07:17;5.70;90.12
72320;SHT30;60269;52.502;16.732;2023-12-29T02:10:50;5.63;90.32
72320;SHT30;60269;52.502;16.732;2023-12-29T02:14:22;5.74;90.09
72320;SHT30;60269;52.502;16.732;2023-12-29T02:18:01;5.79;89.70
72320;SHT30;60269;52.502;16.732;2023-12-29T02:21:35;5.73;90.03
72320;SHT30;60269;52.502;16.732;2023-12-29T02:25:07;5.75;89.89
72320;SHT30;60269;52.502;16.732;2023-12-29T02:28:44;5.77;89.79
72320;SHT30;60269;52.502;16.732;2023-12-29T02:32:18;5.73;90.01
72320;SHT30;60269;52.502;16.732;2023-12-29T02:35:52;5.70;89.93
72320;SHT30;60269;52.502;16.732;2023-12-29T02:39:27;5.74;89.85
72320;SHT30;60269;52.502;16.732;2023-12-29T02:42:59;5.70;89.95
72320;SHT30;60269;52.502;16.732;2023-12-29T02:46:31;5.78;89.70
72320;SHT30;60269;52.502;16.732;2023-12-29T02:50:04;5.78;89.54
72320;SHT30;60269;52.502;16.732;2023-12-29T02:53:36;5.81;89.36
72320;SHT30;60269;52.502;16.732;2023-12-29T02:57:08;5.81;89.25
72320;SHT30;60269;52.502;16.732;2023-12-29T03:00:40;5.87;88.92
72320;SHT30;60269;52.502;16.732;2023-12-29T03:04:12;5.88;88.88
72320;SHT30;60269;52.502;16.732;2023-12-29T03:07:44;5.85;88.98
72320;SHT30;60269;52.502;16.732;2023-12-29T03:11:16;5.88;89.04
72320;SHT30;60269;52.502;16.732;2023-12-29T03:14:48;5.85;88.86
72320;SHT30;60269;52.502;16.732;2023-12-29T03:18:20;5.87;88.83
72320;SHT30;60269;52.502;16.732;2023-12-29T03:21:52;5.78;89.16
72320;SHT30;60269;52.502;16.732;2023-12-29T03:25:25;5.83;89.26
72320;SHT30;60269;52.502;16.732;2023-12-29T03:28:58;5.90;88.87
72320;SHT30;60269;52.502;16.732;2023-12-29T03:32:29;5.83;89.11
72320;SHT30;60269;52.502;16.732;2023-12-29T03:36:01;5.68;89.83
72320;SHT30;60269;52.502;16.732;2023-12-29T03:39:33;5.74;89.49
72320;SHT30;60269;52.502;16.732;2023-12-29T03:43:07;5.67;89.75
72320;SHT30;60269;52.502;16.732;2023-12-29T03:46:39;5.71;89.82
72320;SHT30;60269;52.502;16.732;2023-12-29T03:50:12;5.70;89.86
72320;SHT30;60269;52.502;16.732;2023-12-29T03:53:43;5.84;89.29
72320;SHT30;60269;52.502;16.732;2023-12-29T03:57:16;5.85;89.29
72320;SHT30;60269;52.502;16.732;2023-12-29T04:00:48;5.87;89.19
72320;SHT30;60269;52.502;16.732;2023-12-29T04:04:20;5.81;89.29
72320;SHT30;60269;52.502;16.732;2023-12-29T04:07:52;5.81;89.42
72320;SHT30;60269;52.502;16.732;2023-12-29T04:11:24;5.95;88.96
72320;SHT30;60269;52.502;16.732;2023-12-29T04:14:57;5.98;88.92
72320;SHT30;60269;52.502;16.732;2023-12-29T04:18:29;5.98;88.83
72320;SHT30;60269;52.502;16.732;2023-12-29T04:22:01;6.04;88.47
72320;SHT30;60269;52.502;16.732;2023-12-29T04:25:33;6.12;88.20
72320;SHT30;60269;52.502;16.732;2023-12-29T04:29:06;5.97;88.60
72320;SHT30;60269;52.502;16.732;2023-12-29T04:32:38;5.95;88.82
72320;SHT30;60269;52.502;16.732;2023-12-29T04:36:11;5.94;88.73
72320;SHT30;60269;52.502;16.732;2023-12-29T04:39:43;5.83;89.11
72320;SHT30;60269;52.502;16.732;2023-12-29T04:43:15;5.88;88.92
72320;SHT30;60269;52.502;16.732;2023-12-29T04:46:47;5.84;88.92
72320;SHT30;60269;52.502;16.732;2023-12-29T04:50:19;5.85;88.85
72320;SHT30;60269;52.502;16.732;2023-12-29T04:53:51;5.75;89.12
72320;SHT30;60269;52.502;16.732;2023-12-29T04:57:23;5.73;89.25
72320;SHT30;60269;52.502;16.732;2023-12-29T05:00:55;5.75;89.19
72320;SHT30;60269;52.502;16.732;2023-12-29T05:04:27;5.70;89.23
72320;SHT30;60269;52.502;16.732;2023-12-29T05:07:59;5.77;89.05
72320;SHT30;60269;52.502;16.732;2023-12-29T05:11:32;5.90;88.68
72320;SHT30;60269;52.502;16.732;2023-12-29T05:15:04;5.88;88.68
72320;SHT30;60269;52.502;16.732;2023-12-29T05:18:36;6.02;88.23
72320;SHT30;60269;52.502;16.732;2023-12-29T05:22:08;6.18;87.65
72320;SHT30;60269;52.502;16.732;2023-12-29T05:25:40;6.40;86.71
72320;SHT30;60269;52.502;16.732;2023-12-29T05:29:13;6.32;87.00
72320;SHT30;60269;52.502;16.732;2023-12-29T05:32:45;6.37;87.02
72320;SHT30;60269;52.502;16.732;2023-12-29T05:36:17;6.39;86.88
72320;SHT30;60269;52.502;16.732;2023-12-29T05:39:50;6.40;87.03
72320;SHT30;60269;52.502;16.732;2023-12-29T05:43:22;6.50;86.50
72320;SHT30;60269;52.502;16.732;2023-12-29T05:46:54;6.57;86.22
72320;SHT30;60269;52.502;16.732;2023-12-29T05:50:26;6.52;86.55
72320;SHT30;60269;52.502;16.732;2023-12-29T05:53:58;6.56;86.30
72320;SHT30;60269;52.502;16.732;2023-12-29T05:57:31;6.58;86.23
72320;SHT30;60269;52.502;16.732;2023-12-29T06:01:03;6.67;85.96
72320;SHT30;60269;52.502;16.732;2023-12-29T06:04:35;6.72;85.85
72320;SHT30;60269;52.502;16.732;2023-12-29T06:08:07;6.67;86.10
72320;SHT30;60269;52.502;16.732;2023-12-29T06:11:39;6.63;86.20
72320;SHT30;60269;52.502;16.732;2023-12-29T06:15:12;6.70;86.00
72320;SHT30;60269;52.502;16.732;2023-12-29T06:18:47;6.73;85.83
72320;SHT30;60269;52.502;16.732;2023-12-29T06:22:20;6.70;86.19
72320;SHT30;60269;52.502;16.732;2023-12-29T06:25:52;6.79;85.76
72320;SHT30;60269;52.502;16.732;2023-12-29T06:29:24;6.77;85.71
72320;SHT30;60269;52.502;16.732;2023-12-29T06:32:56;6.77;85.69
72320;SHT30;60269;52.502;16.732;2023-12-29T06:36:28;6.77;85.70
72320;SHT30;60269;52.502;16.732;2023-12-29T06:40:01;6.80;85.49
72320;SHT30;60269;52.502;16.732;2023-12-29T06:43:33;6.74;85.88
72320;SHT30;60269;52.502;16.732;2023-12-29T06:47:05;6.73;85.90
72320;SHT30;60269;52.502;16.732;2023-12-29T06:50:38;6.74;85.88
72320;SHT30;60269;52.502;16.732;2023-12-29T06:54:10;6.74;85.88
72320;SHT30;60269;52.502;16.732;2023-12-29T06:57:42;6.72;85.94
72320;SHT30;60269;52.502;16.732;2023-12-29T07:01:14;6.80;85.58
72320;SHT30;60269;52.502;16.732;2023-12-29T07:04:47;6.79;85.65
72320;SHT30;60269;52.502;16.732;2023-12-29T07:08:20;6.81;85.65
72320;SHT30;60269;52.502;16.732;2023-12-29T07:11:52;6.95;85.13
72320;SHT30;60269;52.502;16.732;2023-12-29T07:15:24;6.95;85.10
72320;SHT30;60269;52.502;16.732;2023-12-29T07:18:57;6.94;85.23
72320;SHT30;60269;52.502;16.732;2023-12-29T07:22:29;6.98;85.19
72320;SHT30;60269;52.502;16.732;2023-12-29T07:26:02;7.08;84.76
72320;SHT30;60269;52.502;16.732;2023-12-29T07:29:35;7.14;84.77
72320;SHT30;60269;52.502;16.732;2023-12-29T07:33:07;7.16;84.67
72320;SHT30;60269;52.502;16.732;2023-12-29T07:36:40;7.19;84.42
72320;SHT30;60269;52.502;16.732;2023-12-29T07:40:13;7.08;84.77
72320;SHT30;60269;52.502;16.732;2023-12-29T07:43:45;7.08;84.78
72320;SHT30;60269;52.502;16.732;2023-12-29T07:47:17;7.15;84.50
72320;SHT30;60269;52.502;16.732;2023-12-29T07:50:49;7.25;84.05
72320;SHT30;60269;52.502;16.732;2023-12-29T07:54:21;7.28;83.92
72320;SHT30;60269;52.502;16.732;2023-12-29T07:57:53;7.35;83.84
72320;SHT30;60269;52.502;16.732;2023-12-29T08:01:25;7.55;82.98
72320;SHT30;60269;52.502;16.732;2023-12-29T08:04:59;7.67;82.85
72320;SHT30;60269;52.502;16.732;2023-12-29T08:08:31;7.77;82.47
72320;SHT30;60269;52.502;16.732;2023-12-29T08:12:03;7.81;82.50
72320;SHT30;60269;52.502;16.732;2023-12-29T08:15:36;7.83;82.18
72320;SHT30;60269;52.502;16.732;2023-12-29T08:19:09;7.80;82.69
72320;SHT30;60269;52.502;16.732;2023-12-29T08:22:42;7.79;82.76
72320;SHT30;60269;52.502;16.732;2023-12-29T08:26:15;7.81;82.70
72320;SHT30;60269;52.502;16.732;2023-12-29T08:29:47;7.83;82.35
72320;SHT30;60269;52.502;16.732;2023-12-29T08:33:19;7.73;82.95
72320;SHT30;60269;52.502;16.732;2023-12-29T08:36:51;7.81;83.18
72320;SHT30;60269;52.502;16.732;2023-12-29T08:40:23;8.00;82.56
72320;SHT30;60269;52.502;16.732;2023-12-29T08:43:55;8.14;82.04
72320;SHT30;60269;52.502;16.732;2023-12-29T08:47:27;8.31;81.69
72320;SHT30;60269;52.502;16.732;2023-12-29T08:50:59;8.28;81.98
72320;SHT30;60269;52.502;16.732;2023-12-29T08:54:31;8.24;82.08
72320;SHT30;60269;52.502;16.732;2023-12-29T08:58:03;8.24;81.98
72320;SHT30;60269;52.502;16.732;2023-12-29T09:01:35;8.22;81.90
72320;SHT30;60269;52.502;16.732;2023-12-29T09:05:08;8.29;81.83
72320;SHT30;60269;52.502;16.732;2023-12-29T09:08:40;8.25;82.50
72320;SHT30;60269;52.502;16.732;2023-12-29T09:12:13;8.14;83.31
72320;SHT30;60269;52.502;16.732;2023-12-29T09:15:45;8.12;83.96
72320;SHT30;60269;52.502;16.732;2023-12-29T09:19:17;8.17;83.62
72320;SHT30;60269;52.502;16.732;2023-12-29T09:23:06;8.38;82.70
72320;SHT30;60269;52.502;16.732;2023-12-29T09:26:38;8.42;82.79
72320;SHT30;60269;52.502;16.732;2023-12-29T09:30:11;8.56;81.93
72320;SHT30;60269;52.502;16.732;2023-12-29T09:33:43;8.66;81.59
72320;SHT30;60269;52.502;16.732;2023-12-29T09:37:15;8.59;81.54
72320;SHT30;60269;52.502;16.732;2023-12-29T09:40:48;8.52;81.56
72320;SHT30;60269;52.502;16.732;2023-12-29T09:44:21;8.91;79.80
72320;SHT30;60269;52.502;16.732;2023-12-29T09:47:55;9.11;79.47
72320;SHT30;60269;52.502;16.732;2023-12-29T09:51:30;9.32;78.72
72320;SHT30;60269;52.502;16.732;2023-12-29T09:55:03;9.51;77.96
72320;SHT30;60269;52.502;16.732;2023-12-29T09:58:36;9.72;77.33
72320;SHT30;60269;52.502;16.732;2023-12-29T10:02:15;9.66;77.22
72320;SHT30;60269;52.502;16.732;2023-12-29T10:05:51;9.69;77.01
72320;SHT30;60269;52.502;16.732;2023-12-29T10:09:26;9.93;76.63
72320;SHT30;60269;52.502;16.732;2023-12-29T10:13:00;10.02;75.74
72320;SHT30;60269;52.502;16.732;2023-12-29T10:16:42;10.10;75.74
72320;SHT30;60269;52.502;16.732;2023-12-29T10:20:29;10.20;75.17
72320;SHT30;60269;52.502;16.732;2023-12-29T10:24:21;10.29;74.66
72320;SHT30;60269;52.502;16.732;2023-12-29T10:27:53;10.05;76.02
72320;SHT30;60269;52.502;16.732;2023-12-29T10:31:26;10.29;75.30
72320;SHT30;60269;52.502;16.732;2023-12-29T10:35:09;10.33;74.54
72320;SHT30;60269;52.502;16.732;2023-12-29T10:38:44;10.45;75.04
72320;SHT30;60269;52.502;16.732;2023-12-29T10:42:16;10.51;74.78
72320;SHT30;60269;52.502;16.732;2023-12-29T10:45:48;10.57;73.66
72320;SHT30;60269;52.502;16.732;2023-12-29T10:49:20;10.62;73.99
72320;SHT30;60269;52.502;16.732;2023-12-29T10:53:14;10.71;73.63
72320;SHT30;60269;52.502;16.732;2023-12-29T10:57:02;10.69;73.57
72320;SHT30;60269;52.502;16.732;2023-12-29T11:00:34;10.89;73.32
72320;SHT30;60269;52.502;16.732;2023-12-29T11:04:07;10.78;73.44
72320;SHT30;60269;52.502;16.732;2023-12-29T11:07:41;10.78;73.58
72320;SHT30;60269;52.502;16.732;2023-12-29T11:11:14;10.69;73.88
72320;SHT30;60269;52.502;16.732;2023-12-29T11:14:46;10.48;74.47
72320;SHT30;60269;52.502;16.732;2023-12-29T11:18:20;10.53;74.72
72320;SHT30;60269;52.502;16.732;2023-12-29T11:21:55;10.57;73.94
72320;SHT30;60269;52.502;16.732;2023-12-29T11:25:27;10.57;73.94
72320;SHT30;60269;52.502;16.732;2023-12-29T11:29:01;10.48;74.27
72320;SHT30;60269;52.502;16.732;2023-12-29T11:32:55;10.48;74.47
72320;SHT30;60269;52.502;16.732;2023-12-29T11:36:32;10.33;74.67
72320;SHT30;60269;52.502;16.732;2023-12-29T11:40:18;10.25;74.23
72320;SHT30;60269;52.502;16.732;2023-12-29T11:44:01;10.17;75.10
72320;SHT30;60269;52.502;16.732;2023-12-29T11:47:37;10.20;75.26
72320;SHT30;60269;52.502;16.732;2023-12-29T11:55:12;10.25;75.23
72320;SHT30;60269;52.502;16.732;2023-12-29T11:58:44;10.58;73.73
72320;SHT30;60269;52.502;16.732;2023-12-29T12:02:28;10.71;73.94
72320;SHT30;60269;52.502;16.732;2023-12-29T12:06:01;10.64;73.71
72320;SHT30;60269;52.502;16.732;2023-12-29T12:09:36;10.55;74.46
72320;SHT30;60269;52.502;16.732;2023-12-29T12:13:08;10.71;73.96
72320;SHT30;60269;52.502;16.732;2023-12-29T12:16:48;10.86;73.71
72320;SHT30;60269;52.502;16.732;2023-12-29T12:20:22;11.20;73.06
72320;SHT30;60269;52.502;16.732;2023-12-29T12:23:55;10.98;73.08
72320;SHT30;60269;52.502;16.732;2023-12-29T12:27:27;10.81;73.57
72320;SHT30;60269;52.502;16.732;2023-12-29T12:31:09;10.79;74.44
72320;SHT30;60269;52.502;16.732;2023-12-29T12:34:41;10.72;73.96
72320;SHT30;60269;52.502;16.732;2023-12-29T12:38:14;10.71;74.17
72320;SHT30;60269;52.502;16.732;2023-12-29T12:41:52;10.67;74.41
72320;SHT30;60269;52.502;16.732;2023-12-29T12:45:25;10.67;74.59
72320;SHT30;60269;52.502;16.732;2023-12-29T12:48:59;10.65;74.29
72320;SHT30;60269;52.502;16.732;2023-12-29T12:52:35;10.58;74.14
72320;SHT30;60269;52.502;16.732;2023-12-29T12:56:07;10.48;74.58
72320;SHT30;60269;52.502;16.732;2023-12-29T12:59:39;10.43;74.64
72320;SHT30;60269;52.502;16.732;2023-12-29T13:03:13;10.40;75.16
72320;SHT30;60269;52.502;16.732;2023-12-29T13:06:45;10.33;75.51
72320;SHT30;60269;52.502;16.732;2023-12-29T13:10:22;10.32;75.21
72320;SHT30;60269;52.502;16.732;2023-12-29T13:13:54;10.27;75.30
72320;SHT30;60269;52.502;16.732;2023-12-29T13:17:29;10.24;75.54
72320;SHT30;60269;52.502;16.732;2023-12-29T13:21:02;10.27;75.19
72320;SHT30;60269;52.502;16.732;2023-12-29T13:24:42;10.29;75.16
72320;SHT30;60269;52.502;16.732;2023-12-29T13:28:18;10.24;75.47
72320;SHT30;60269;52.502;16.732;2023-12-29T13:31:52;10.18;75.78
72320;SHT30;60269;52.502;16.732;2023-12-29T13:35:38;10.12;76.20
72320;SHT30;60269;52.502;16.732;2023-12-29T13:39:46;10.13;76.23
72320;SHT30;60269;52.502;16.732;2023-12-29T13:43:23;10.05;76.35
72320;SHT30;60269;52.502;16.732;2023-12-29T13:46:56;9.96;76.99
72320;SHT30;60269;52.502;16.732;2023-12-29T13:50:29;9.81;77.76
72320;SHT30;60269;52.502;16.732;2023-12-29T13:54:02;9.72;77.78
72320;SHT30;60269;52.502;16.732;2023-12-29T13:57:35;9.71;78.05
72320;SHT30;60269;52.502;16.732;2023-12-29T14:01:08;9.75;77.74
72320;SHT30;60269;52.502;16.732;2023-12-29T14:04:42;9.66;78.22
72320;SHT30;60269;52.502;16.732;2023-12-29T14:08:18;9.69;78.12
72320;SHT30;60269;52.502;16.732;2023-12-29T14:11:55;9.63;78.39
72320;SHT30;60269;52.502;16.732;2023-12-29T14:15:28;9.69;77.89
72320;SHT30;60269;52.502;16.732;2023-12-29T14:18:59;9.65;78.18
72320;SHT30;60269;52.502;16.732;2023-12-29T14:22:35;9.62;78.06
72320;SHT30;60269;52.502;16.732;2023-12-29T14:26:07;9.68;77.82
72320;SHT30;60269;52.502;16.732;2023-12-29T14:29:40;9.65;78.09
72320;SHT30;60269;52.502;16.732;2023-12-29T14:33:13;9.66;78.07
72320;SHT30;60269;52.502;16.732;2023-12-29T14:36:45;9.59;78.33
72320;SHT30;60269;52.502;16.732;2023-12-29T14:40:18;9.63;77.91
72320;SHT30;60269;52.502;16.732;2023-12-29T14:43:50;9.58;78.29
72320;SHT30;60269;52.502;16.732;2023-12-29T14:47:23;9.55;78.50
72320;SHT30;60269;52.502;16.732;2023-12-29T14:50:55;9.54;78.57
72320;SHT30;60269;52.502;16.732;2023-12-29T14:54:30;9.58;78.47
72320;SHT30;60269;52.502;16.732;2023-12-29T14:58:02;9.55;78.33
72320;SHT30;60269;52.502;16.732;2023-12-29T15:01:34;9.55;78.70
72320;SHT30;60269;52.502;16.732;2023-12-29T15:05:06;9.54;78.72
72320;SHT30;60269;52.502;16.732;2023-12-29T15:08:39;9.48;78.91
72320;SHT30;60269;52.502;16.732;2023-12-29T15:12:11;9.47;78.99
72320;SHT30;60269;52.502;16.732;2023-12-29T15:15:43;9.52;78.83
72320;SHT30;60269;52.502;16.732;2023-12-29T15:19:15;9.47;79.12
72320;SHT30;60269;52.502;16.732;2023-12-29T15:22:47;9.56;78.87
72320;SHT30;60269;52.502;16.732;2023-12-29T15:26:20;9.51;79.03
72320;SHT30;60269;52.502;16.732;2023-12-29T15:29:52;9.58;78.80
72320;SHT30;60269;52.502;16.732;2023-12-29T15:33:24;9.54;78.89
72320;SHT30;60269;52.502;16.732;2023-12-29T15:36:57;9.37;79.64
72320;SHT30;60269;52.502;16.732;2023-12-29T15:40:29;9.38;79.57
72320;SHT30;60269;52.502;16.732;2023-12-29T15:44:01;9.34;79.87
72320;SHT30;60269;52.502;16.732;2023-12-29T15:47:35;9.28;80.13
72320;SHT30;60269;52.502;16.732;2023-12-29T15:51:07;9.45;79.56
72320;SHT30;60269;52.502;16.732;2023-12-29T15:54:40;9.31;80.05
72320;SHT30;60269;52.502;16.732;2023-12-29T15:58:12;9.31;80.21
72320;SHT30;60269;52.502;16.732;2023-12-29T16:01:44;9.41;79.78
72320;SHT30;60269;52.502;16.732;2023-12-29T16:05:17;9.38;79.81
72320;SHT30;60269;52.502;16.732;2023-12-29T16:08:49;9.48;79.34
72320;SHT30;60269;52.502;16.732;2023-12-29T16:12:26;9.39;79.59
72320;SHT30;60269;52.502;16.732;2023-12-29T16:16:03;9.34;79.90
72320;SHT30;60269;52.502;16.732;2023-12-29T16:19:35;9.34;79.72
72320;SHT30;60269;52.502;16.732;2023-12-29T16:23:07;9.44;79.55
72320;SHT30;60269;52.502;16.732;2023-12-29T16:26:39;9.54;79.04
72320;SHT30;60269;52.502;16.732;2023-12-29T16:30:19;9.58;79.08
72320;SHT30;60269;52.502;16.732;2023-12-29T16:33:51;9.69;78.44
72320;SHT30;60269;52.502;16.732;2023-12-29T16:37:23;9.68;78.61
72320;SHT30;60269;52.502;16.732;2023-12-29T16:40:57;9.81;78.21
72320;SHT30;60269;52.502;16.732;2023-12-29T16:44:30;9.83;77.90
72320;SHT30;60269;52.502;16.732;2023-12-29T16:48:02;9.79;78.07
72320;SHT30;60269;52.502;16.732;2023-12-29T16:51:34;9.76;78.07
72320;SHT30;60269;52.502;16.732;2023-12-29T16:55:06;9.47;79.35
72320;SHT30;60269;52.502;16.732;2023-12-29T16:58:39;9.51;79.22
72320;SHT30;60269;52.502;16.732;2023-12-29T17:02:14;9.65;78.72
72320;SHT30;60269;52.502;16.732;2023-12-29T17:05:46;9.58;79.14
72320;SHT30;60269;52.502;16.732;2023-12-29T17:09:18;9.52;79.40
72320;SHT30;60269;52.502;16.732;2023-12-29T17:12:50;9.51;79.48
72320;SHT30;60269;52.502;16.732;2023-12-29T17:16:23;9.45;79.98
72320;SHT30;60269;52.502;16.732;2023-12-29T17:20:00;9.55;79.61
72320;SHT30;60269;52.502;16.732;2023-12-29T17:23:32;9.42;80.46
72320;SHT30;60269;52.502;16.732;2023-12-29T17:27:05;9.49;79.96
72320;SHT30;60269;52.502;16.732;2023-12-29T17:30:36;9.56;79.96
72320;SHT30;60269;52.502;16.732;2023-12-29T17:34:09;9.69;79.57
72320;SHT30;60269;52.502;16.732;2023-12-29T17:37:41;9.63;79.81
72320;SHT30;60269;52.502;16.732;2023-12-29T17:41:12;9.63;79.93
72320;SHT30;60269;52.502;16.732;2023-12-29T17:44:44;9.56;80.17
72320;SHT30;60269;52.502;16.732;2023-12-29T17:48:16;9.52;80.20
72320;SHT30;60269;52.502;16.732;2023-12-29T17:51:48;9.51;80.37
72320;SHT30;60269;52.502;16.732;2023-12-29T17:55:21;9.49;80.32
72320;SHT30;60269;52.502;16.732;2023-12-29T17:58:53;9.47;80.43
72320;SHT30;60269;52.502;16.732;2023-12-29T18:02:25;9.45;80.59
72320;SHT30;60269;52.502;16.732;2023-12-29T18:06:04;9.51;80.69
72320;SHT30;60269;52.502;16.732;2023-12-29T18:09:38;9.51;80.78
72320;SHT30;60269;52.502;16.732;2023-12-29T18:13:11;9.65;80.39
72320;SHT30;60269;52.502;16.732;2023-12-29T18:16:45;9.55;80.76
72320;SHT30;60269;52.502;16.732;2023-12-29T18:20:18;9.48;81.04
72320;SHT30;60269;52.502;16.732;2023-12-29T18:23:51;9.48;81.23
72320;SHT30;60269;52.502;16.732;2023-12-29T18:27:23;9.34;81.68
72320;SHT30;60269;52.502;16.732;2023-12-29T18:30:56;9.38;81.46
72320;SHT30;60269;52.502;16.732;2023-12-29T18:34:28;9.37;81.50
72320;SHT30;60269;52.502;16.732;2023-12-29T18:38:00;9.34;81.68
72320;SHT30;60269;52.502;16.732;2023-12-29T18:41:32;9.31;81.46
72320;SHT30;60269;52.502;16.732;2023-12-29T18:45:04;9.32;81.43
72320;SHT30;60269;52.502;16.732;2023-12-29T18:48:37;9.34;81.41
72320;SHT30;60269;52.502;16.732;2023-12-29T18:52:10;9.41;81.22
72320;SHT30;60269;52.502;16.732;2023-12-29T18:55:42;9.32;81.54
72320;SHT30;60269;52.502;16.732;2023-12-29T18:59:16;9.30;81.68
72320;SHT30;60269;52.502;16.732;2023-12-29T19:02:49;9.27;81.96
72320;SHT30;60269;52.502;16.732;2023-12-29T19:06:24;9.18;82.35
72320;SHT30;60269;52.502;16.732;2023-12-29T19:09:57;9.21;82.26
72320;SHT30;60269;52.502;16.732;2023-12-29T19:13:29;9.13;82.74
72320;SHT30;60269;52.502;16.732;2023-12-29T19:17:02;9.14;82.78
72320;SHT30;60269;52.502;16.732;2023-12-29T19:20:36;9.17;82.68
72320;SHT30;60269;52.502;16.732;2023-12-29T19:24:08;9.14;82.87
72320;SHT30;60269;52.502;16.732;2023-12-29T19:27:41;9.20;82.65
72320;SHT30;60269;52.502;16.732;2023-12-29T19:31:15;9.23;82.58
72320;SHT30;60269;52.502;16.732;2023-12-29T19:34:49;9.24;82.57
72320;SHT30;60269;52.502;16.732;2023-12-29T19:38:21;9.14;82.90
72320;SHT30;60269;52.502;16.732;2023-12-29T19:41:54;9.20;82.80
72320;SHT30;60269;52.502;16.732;2023-12-29T19:45:26;9.24;82.57
72320;SHT30;60269;52.502;16.732;2023-12-29T19:48:59;9.24;82.73
72320;SHT30;60269;52.502;16.732;2023-12-29T19:52:32;9.31;82.51
72320;SHT30;60269;52.502;16.732;2023-12-29T19:56:03;9.35;82.51
72320;SHT30;60269;52.502;16.732;2023-12-29T19:59:36;9.37;82.32
72320;SHT30;60269;52.502;16.732;2023-12-29T20:03:08;9.27;82.72
72320;SHT30;60269;52.502;16.732;2023-12-29T20:06:41;9.32;82.67
72320;SHT30;60269;52.502;16.732;2023-12-29T20:10:13;9.34;82.50
72320;SHT30;60269;52.502;16.732;2023-12-29T20:13:47;9.28;82.83
72320;SHT30;60269;52.502;16.732;2023-12-29T20:17:19;9.34;82.65
72320;SHT30;60269;52.502;16.732;2023-12-29T20:20:51;9.45;82.11
72320;SHT30;60269;52.502;16.732;2023-12-29T20:24:23;9.34;82.70
72320;SHT30;60269;52.502;16.732;2023-12-29T20:27:55;9.38;82.45
72320;SHT30;60269;52.502;16.732;2023-12-29T20:31:29;9.41;82.46
72320;SHT30;60269;52.502;16.732;2023-12-29T20:35:01;9.39;82.48
72320;SHT30;60269;52.502;16.732;2023-12-29T20:38:34;9.48;82.30
72320;SHT30;60269;52.502;16.732;2023-12-29T20:42:05;9.42;82.41
72320;SHT30;60269;52.502;16.732;2023-12-29T20:45:38;9.38;82.50
72320;SHT30;60269;52.502;16.732;2023-12-29T20:49:17;9.39;82.58
72320;SHT30;60269;52.502;16.732;2023-12-29T20:52:48;9.37;82.50
72320;SHT30;60269;52.502;16.732;2023-12-29T20:56:20;9.41;82.47
72320;SHT30;60269;52.502;16.732;2023-12-29T20:59:53;9.44;82.25
72320;SHT30;60269;52.502;16.732;2023-12-29T21:03:25;9.38;82.57
72320;SHT30;60269;52.502;16.732;2023-12-29T21:06:57;9.38;82.74
72320;SHT30;60269;52.502;16.732;2023-12-29T21:10:30;9.47;82.31
72320;SHT30;60269;52.502;16.732;2023-12-29T21:14:02;9.45;82.78
72320;SHT30;60269;52.502;16.732;2023-12-29T21:17:34;9.28;83.57
72320;SHT30;60269;52.502;16.732;2023-12-29T21:21:07;9.35;83.03
72320;SHT30;60269;52.502;16.732;2023-12-29T21:24:39;9.31;83.11
72320;SHT30;60269;52.502;16.732;2023-12-29T21:28:11;9.37;82.89
72320;SHT30;60269;52.502;16.732;2023-12-29T21:31:43;9.37;82.87
72320;SHT30;60269;52.502;16.732;2023-12-29T21:35:15;9.38;82.92
72320;SHT30;60269;52.502;16.732;2023-12-29T21:38:48;9.39;82.86
72320;SHT30;60269;52.502;16.732;2023-12-29T21:42:20;9.30;83.26
72320;SHT30;60269;52.502;16.732;2023-12-29T21:50:14;9.34;83.18
72320;SHT30;60269;52.502;16.732;2023-12-29T21:53:46;9.32;83.28
72320;SHT30;60269;52.502;16.732;2023-12-29T21:57:19;9.32;83.31
72320;SHT30;60269;52.502;16.732;2023-12-29T22:00:54;9.27;83.55
72320;SHT30;60269;52.502;16.732;2023-12-29T22:04:26;9.39;83.21
72320;SHT30;60269;52.502;16.732;2023-12-29T22:08:00;9.39;83.47
72320;SHT30;60269;52.502;16.732;2023-12-29T22:11:31;9.44;83.44
72320;SHT30;60269;52.502;16.732;2023-12-29T22:15:04;9.37;83.87
72320;SHT30;60269;52.502;16.732;2023-12-29T22:18:37;9.42;83.54
72320;SHT30;60269;52.502;16.732;2023-12-29T22:22:08;9.35;84.00
72320;SHT30;60269;52.502;16.732;2023-12-29T22:25:41;9.34;83.62
72320;SHT30;60269;52.502;16.732;2023-12-29T22:29:13;9.28;83.85
72320;SHT30;60269;52.502;16.732;2023-12-29T22:32:45;9.17;84.04